Terminal Aerodrome Forecast
Issued by NWS

Home | Current Version | Previous Version | Text Only | Print | Product List | Glossary On
Versions: 1 2 3 4 5 6 7 8 9 10 11 12 13 14
000
FTUS43 KLSX 271724
TAFSUS
TAF
KSUS 271724Z 2718/2818 22006KT P6SM SCT025 BKN120
     FM280100 VRB03KT P6SM FEW050 BKN250
     FM280900 VRB03KT 4SM BR SCT250
     FM281400 14006KT P6SM SCT050 SCT250=

USA.gov is the U.S. government's official web portal to all federal, state and local government web resources and services.